Time;durP1;ratioP1;P1;durP2;ratioP2;P2;SDS_P1;SDS_P2;PMS_P1;PMS_P2;Temp;Humidity;BMP_temperature;BMP_pressure;BME280_temperature;BME280_humidity;BME280_pressure;Samples;Min_cycle;Max_cycle;Signal;HPM_P1;HPM_P2
2022/06/04 00:01:44;;;;;;;9.48;4.53;;;;;;;15.20;74.03;100243.36;1751141;82;21139;-66
2022/06/04 00:04:12;;;;;;;10.23;4.80;;;;;;;15.21;74.29;100247.78;1751386;81;21456;-66
2022/06/04 00:06:39;;;;;;;5.45;4.05;;;;;;;15.24;74.22;100253.23;1751301;82;21113;-65
2022/06/04 00:09:06;;;;;;;9.63;5.22;;;;;;;15.24;74.09;100252.41;1751089;81;21353;-67
2022/06/04 00:17:03;;;;;;;5.87;4.50;;;;;;;15.09;74.01;100248.48;1751375;82;20940;-66
2022/06/04 00:19:30;;;;;;;7.33;4.62;;;;;;;15.06;74.37;100250.52;1750878;81;20968;-67
2022/06/04 00:21:58;;;;;;;7.40;4.33;;;;;;;15.08;74.52;100245.45;1751474;81;21003;-66
2022/06/04 00:24:25;;;;;;;6.55;4.60;;;;;;;15.11;74.32;100248.72;1750915;82;20996;-68
2022/06/04 00:26:52;;;;;;;10.65;5.37;;;;;;;15.12;74.49;100242.83;1751574;81;21020;-67
2022/06/04 00:29:19;;;;;;;8.88;4.75;;;;;;;15.13;74.58;100243.66;1750948;81;20992;-67
2022/06/04 00:31:49;;;;;;;5.33;3.83;;;;;;;15.14;74.81;100239.72;1751084;81;21881;-69
2022/06/04 00:34:17;;;;;;;6.53;4.62;;;;;;;15.17;74.87;100241.83;1751471;82;21003;-68
2022/06/04 00:36:45;;;;;;;10.95;5.65;;;;;;;15.20;74.81;100239.20;1751308;81;20919;-67
2022/06/04 00:39:11;;;;;;;9.75;4.62;;;;;;;15.20;74.70;100232.26;1751327;81;20920;-68
2022/06/04 00:41:54;;;;;;;5.83;3.77;;;;;;;15.19;74.63;100234.80;1751289;82;20963;-67
2022/06/04 00:44:32;;;;;;;5.67;4.05;;;;;;;15.17;74.44;100223.78;1751566;82;21129;-67
2022/06/04 00:47:14;;;;;;;8.98;4.80;;;;;;;15.14;74.65;100220.30;1742128;82;20980;-68
2022/06/04 00:49:42;;;;;;;9.43;4.33;;;;;;;15.13;74.79;100223.63;1751143;81;21405;-66
2022/06/04 00:52:12;;;;;;;6.92;4.40;;;;;;;15.15;74.71;100228.88;1751140;82;21339;-67
2022/06/04 00:54:40;;;;;;;6.62;4.30;;;;;;;15.13;74.67;100219.47;1751269;82;20984;-68
2022/06/04 00:57:36;;;;;;;12.88;4.65;;;;;;;15.12;74.74;100213.69;1751663;81;21277;-69
2022/06/04 01:00:10;;;;;;;8.90;4.67;;;;;;;15.12;74.50;100215.64;1750907;82;21410;-67
2022/06/04 01:03:09;;;;;;;5.22;4.08;;;;;;;15.10;74.33;100218.75;1750986;82;20959;-67
2022/06/04 01:06:20;;;;;;;7.40;4.30;;;;;;;15.07;74.28;100218.86;1750905;82;21376;-66
2022/06/04 01:09:13;;;;;;;7.70;5.22;;;;;;;15.06;74.25;100211.67;1750944;81;21071;-66
2022/06/04 01:12:11;;;;;;;8.75;4.40;;;;;;;15.03;74.40;100212.94;1751146;81;21048;-66
2022/06/04 01:15:12;;;;;;;6.12;3.85;;;;;;;15.03;74.94;100210.16;1751035;81;20932;-66
2022/06/04 01:18:05;;;;;;;6.37;3.85;;;;;;;15.01;75.05;100211.85;1751321;82;21010;-66
2022/06/04 01:20:49;;;;;;;10.10;4.12;;;;;;;14.98;75.04;100215.30;1751453;81;20952;-65
2022/06/04 01:23:49;;;;;;;8.73;4.95;;;;;;;14.96;75.39;100212.86;1751086;81;20933;-65
2022/06/04 01:26:55;;;;;;;7.65;3.80;;;;;;;14.96;75.21;100218.41;1751744;81;21207;-67
2022/06/04 01:29:46;;;;;;;5.72;4.15;;;;;;;14.97;75.29;100215.07;1750884;81;20971;-66
2022/06/04 01:32:35;;;;;;;6.08;3.87;;;;;;;14.98;75.17;100221.45;1751306;82;21030;-65
2022/06/04 01:35:07;;;;;;;6.10;4.00;;;;;;;14.95;75.07;100219.57;1751328;81;21437;-67
2022/06/04 01:37:51;;;;;;;5.07;3.73;;;;;;;14.91;75.29;100218.59;1751398;82;20924;-65
2022/06/04 01:43:21;;;;;;;4.70;3.85;;;;;;;14.92;75.61;100217.47;1750884;82;21009;-67
2022/06/04 01:45:47;;;;;;;5.65;4.00;;;;;;;14.94;75.69;100217.92;1750950;82;21104;-66
2022/06/04 01:48:15;;;;;;;4.85;3.67;;;;;;;14.98;75.61;100219.46;1750957;81;20987;-66
2022/06/04 01:50:47;;;;;;;7.67;3.98;;;;;;;14.98;75.55;100213.12;1750870;82;21092;-66
2022/06/04 01:53:14;;;;;;;7.12;4.53;;;;;;;14.97;75.49;100208.13;1718532;83;21558;-66
2022/06/04 01:55:59;;;;;;;7.10;4.12;;;;;;;14.98;75.54;100211.14;1700725;83;21031;-66
2022/06/04 01:58:30;;;;;;;6.92;3.92;;;;;;;14.99;75.43;100194.75;1750385;82;21059;-65
2022/06/04 02:01:04;;;;;;;14.15;4.60;;;;;;;15.01;75.28;100193.81;1709509;82;21004;-65
2022/06/04 02:03:46;;;;;;;7.80;4.30;;;;;;;15.00;75.19;100186.66;1737567;82;20996;-65
2022/06/04 02:06:21;;;;;;;4.87;3.98;;;;;;;14.99;75.41;100192.54;1737333;82;21148;-68
2022/06/04 02:08:59;;;;;;;4.97;3.50;;;;;;;14.99;75.79;100193.92;1737010;82;20993;-65
2022/06/04 02:11:26;;;;;;;6.20;3.58;;;;;;;14.99;75.68;100189.77;1737402;82;20846;-66
2022/06/04 02:13:57;;;;;;;7.50;3.58;;;;;;;14.96;75.79;100196.81;1737337;82;21044;-68
2022/06/04 02:16:39;;;;;;;10.78;4.35;;;;;;;14.96;75.98;100195.42;1748433;82;20936;-67
2022/06/04 02:19:06;;;;;;;5.17;3.65;;;;;;;14.97;76.07;100197.03;1729474;82;21092;-67
2022/06/04 02:21:35;;;;;;;3.55;3.05;;;;;;;14.99;75.79;100198.09;1748188;82;20933;-68
2022/06/04 02:24:01;;;;;;;4.55;3.12;;;;;;;14.99;75.78;100205.84;1751862;81;20995;-66
2022/06/04 02:26:27;;;;;;;5.25;4.12;;;;;;;15.00;76.17;100210.80;1751255;82;20964;-66
2022/06/04 02:28:56;;;;;;;5.55;3.00;;;;;;;15.03;76.37;100211.55;1751282;81;20992;-66
2022/06/04 02:31:46;;;;;;;3.52;2.98;;;;;;;15.05;76.38;100215.60;1751348;82;21409;-65
2022/06/04 02:34:33;;;;;;;4.60;3.50;;;;;;;15.08;76.54;100220.48;1751057;82;21457;-66
2022/06/04 02:37:20;;;;;;;3.47;2.47;;;;;;;15.12;76.92;100224.79;1751188;82;21067;-66
2022/06/04 02:40:11;;;;;;;3.70;2.80;;;;;;;15.17;77.15;100222.39;1751081;81;20972;-67
2022/06/04 02:42:58;;;;;;;3.25;2.52;;;;;;;15.21;77.50;100221.41;1751394;82;21043;-66
2022/06/04 02:45:51;;;;;;;4.17;3.08;;;;;;;15.26;77.97;100230.12;1751513;82;21210;-67
2022/06/04 02:48:27;;;;;;;3.40;2.85;;;;;;;15.28;77.90;100227.83;1663588;84;21541;-66
2022/06/04 02:51:04;;;;;;;4.50;3.37;;;;;;;15.35;77.87;100227.86;1663639;86;21083;-66
2022/06/04 02:53:32;;;;;;;4.72;3.10;;;;;;;15.38;77.66;100223.02;1709517;82;21008;-66
2022/06/04 02:56:13;;;;;;;4.85;2.75;;;;;;;15.43;77.45;100221.44;1751662;81;21432;-66
2022/06/04 02:58:42;;;;;;;3.33;2.95;;;;;;;15.49;76.99;100223.46;1751105;82;21112;-66
2022/06/04 03:01:10;;;;;;;4.17;2.87;;;;;;;15.53;76.66;100225.78;1751148;81;21140;-66
2022/06/04 03:03:37;;;;;;;6.12;3.22;;;;;;;15.56;76.49;100237.03;1751277;81;21023;-66
2022/06/04 03:06:08;;;;;;;4.53;3.37;;;;;;;15.60;76.26;100231.62;1751375;82;20965;-66
2022/06/04 03:08:38;;;;;;;4.62;2.83;;;;;;;15.63;75.96;100230.13;1751404;82;20992;-67
2022/06/04 03:11:05;;;;;;;6.35;3.77;;;;;;;15.65;75.45;100234.77;1751048;81;21115;-67
2022/06/04 03:13:33;;;;;;;3.33;3.02;;;;;;;15.69;75.62;100231.57;1751154;81;20967;-69
2022/06/04 03:16:00;;;;;;;2.90;2.50;;;;;;;15.74;75.64;100225.81;1751578;82;20968;-68
2022/06/04 03:18:27;;;;;;;5.00;2.70;;;;;;;15.75;75.29;100221.88;1751471;81;20988;-67
2022/06/04 03:20:56;;;;;;;3.33;2.98;;;;;;;15.77;74.94;100233.47;1751209;82;20845;-65
2022/06/04 03:23:26;;;;;;;3.95;3.25;;;;;;;15.79;74.74;100229.78;1751481;81;20983;-66
2022/06/04 03:25:52;;;;;;;4.12;2.80;;;;;;;15.81;74.57;100226.66;1751401;81;21489;-67
2022/06/04 03:28:20;;;;;;;3.02;2.80;;;;;;;15.82;74.78;100226.89;1751436;81;20993;-68
2022/06/04 03:30:47;;;;;;;5.53;2.85;;;;;;;15.82;74.75;100223.55;1751228;82;21007;-67
2022/06/04 03:33:16;;;;;;;2.92;2.62;;;;;;;15.81;74.69;100221.11;1726253;82;21112;-67
2022/06/04 03:35:43;;;;;;;3.27;2.95;;;;;;;15.82;74.91;100216.59;1751575;82;21719;-67
2022/06/04 03:38:10;;;;;;;4.15;2.42;;;;;;;15.82;74.82;100219.38;1750875;81;21465;-66
2022/06/04 03:40:37;;;;;;;7.58;3.72;;;;;;;15.87;74.84;100216.14;1751381;81;21110;-66
2022/06/04 03:43:04;;;;;;;2.83;2.17;;;;;;;15.88;74.90;100222.75;1751129;80;20963;-68
2022/06/04 03:45:34;;;;;;;4.72;2.30;;;;;;;15.93;74.85;100225.92;1751537;81;20857;-67
2022/06/04 03:48:03;;;;;;;3.80;1.92;;;;;;;15.99;75.15;100224.58;1751277;82;21224;-68
2022/06/04 03:50:32;;;;;;;2.70;1.98;;;;;;;16.10;74.89;100222.77;1751436;81;21040;-67
2022/06/04 03:53:00;;;;;;;3.92;2.05;;;;;;;16.20;74.21;100229.31;1751215;81;21044;-65
2022/06/04 03:55:27;;;;;;;2.00;1.90;;;;;;;16.30;73.82;100227.50;1751293;82;21138;-67
2022/06/04 03:57:54;;;;;;;4.28;1.52;;;;;;;16.40;73.20;100226.81;1751712;82;20949;-69
2022/06/04 04:00:39;;;;;;;2.05;1.45;;;;;;;16.52;72.44;100229.64;1751236;82;21239;-67
2022/06/04 04:03:14;;;;;;;2.55;1.60;;;;;;;16.64;71.38;100234.99;1751552;81;21057;-68
2022/06/04 04:05:48;;;;;;;1.72;1.40;;;;;;;16.77;70.67;100238.03;1727658;82;21173;-68
2022/06/04 04:08:16;;;;;;;2.02;1.60;;;;;;;16.89;69.79;100239.20;1751547;81;20953;-68
2022/06/04 04:10:43;;;;;;;2.50;1.22;;;;;;;17.02;68.69;100238.09;1751057;82;21079;-68
2022/06/04 04:13:12;;;;;;;2.67;1.57;;;;;;;17.13;67.30;100234.84;1751506;82;21116;-67
2022/06/04 04:15:42;;;;;;;7.95;1.70;;;;;;;17.24;66.26;100239.38;1751337;82;20971;-67
2022/06/04 04:18:11;;;;;;;5.58;1.80;;;;;;;17.34;65.21;100240.88;1751504;82;20972;-67
2022/06/04 04:20:41;;;;;;;1.90;1.27;;;;;;;17.41;64.89;100236.94;1751341;82;21537;-69
2022/06/04 04:23:08;;;;;;;3.05;1.85;;;;;;;17.49;64.60;100234.61;1751235;82;21497;-67
2022/06/04 04:25:36;;;;;;;2.27;1.47;;;;;;;17.59;63.78;100235.28;1751329;81;21037;-68
2022/06/04 04:28:03;;;;;;;4.05;1.45;;;;;;;17.67;63.69;100234.36;1726059;82;20920;-69
2022/06/04 04:30:32;;;;;;;2.60;1.70;;;;;;;17.76;63.88;100237.81;1751216;82;21469;-67
2022/06/04 04:32:59;;;;;;;3.22;1.40;;;;;;;17.86;63.23;100237.89;1751440;81;20996;-67
2022/06/04 04:35:28;;;;;;;7.05;1.65;;;;;;;17.96;62.13;100239.37;1751422;82;20992;-69
2022/06/04 04:37:54;;;;;;;2.00;1.10;;;;;;;18.05;61.50;100241.23;1751526;82;21501;-67
2022/06/04 04:40:24;;;;;;;2.55;1.60;;;;;;;18.16;61.00;100237.36;1750997;80;21433;-68
2022/06/04 04:42:52;;;;;;;1.85;1.35;;;;;;;18.22;60.73;100242.33;1751108;81;21040;-67
2022/06/04 04:45:19;;;;;;;1.35;1.12;;;;;;;18.29;60.36;100238.94;1752000;82;20996;-68
2022/06/04 04:47:47;;;;;;;2.55;1.60;;;;;;;18.36;60.33;100243.90;1751171;82;21123;-66
2022/06/04 04:50:27;;;;;;;1.98;1.37;;;;;;;18.45;60.35;100244.56;1725708;82;21143;-67
2022/06/04 04:52:57;;;;;;;2.20;1.35;;;;;;;18.54;60.30;100240.80;1751086;81;20996;-68
2022/06/04 04:55:25;;;;;;;1.62;1.35;;;;;;;18.62;59.72;100235.63;1751468;82;21484;-67
2022/06/04 04:57:51;;;;;;;1.50;1.25;;;;;;;18.66;58.69;100237.95;1751016;82;20974;-68
2022/06/04 05:00:19;;;;;;;1.37;1.10;;;;;;;18.71;58.08;100236.26;1751344;81;21005;-66
2022/06/04 05:02:45;;;;;;;1.85;1.10;;;;;;;18.79;57.88;100232.27;1751235;81;21230;-65
2022/06/04 05:05:13;;;;;;;3.83;1.80;;;;;;;18.85;57.62;100237.83;1751668;82;21417;-67
2022/06/04 05:07:41;;;;;;;2.15;1.27;;;;;;;18.92;57.47;100238.59;1751245;82;21086;-68
2022/06/04 05:10:08;;;;;;;3.05;1.55;;;;;;;18.98;57.18;100237.96;1751033;82;21039;-69
2022/06/04 05:12:35;;;;;;;3.85;1.57;;;;;;;19.04;56.68;100246.07;1751219;82;20928;-68
2022/06/04 05:15:02;;;;;;;1.77;1.55;;;;;;;19.06;56.73;100245.92;1751267;81;21936;-66
2022/06/04 05:17:30;;;;;;;2.65;1.55;;;;;;;19.11;57.36;100249.05;1751338;81;21030;-67
2022/06/04 05:19:58;;;;;;;1.32;1.22;;;;;;;19.16;57.59;100240.39;1751289;82;21067;-65
2022/06/04 05:22:24;;;;;;;2.25;1.70;;;;;;;19.22;57.66;100242.34;1751283;81;20881;-65
2022/06/04 05:24:51;;;;;;;4.00;1.87;;;;;;;19.25;57.75;100238.82;1748016;81;21067;-69
2022/06/04 05:27:17;;;;;;;3.67;1.55;;;;;;;19.30;57.41;100239.94;1748794;82;21662;-67
2022/06/04 05:29:44;;;;;;;2.83;1.75;;;;;;;19.36;57.56;100241.06;1748250;82;21016;-68
2022/06/04 05:32:10;;;;;;;3.62;2.00;;;;;;;19.42;57.86;100243.78;1748709;81;21461;-67
2022/06/04 05:34:38;;;;;;;5.37;1.45;;;;;;;19.46;57.89;100230.12;1748137;81;21012;-69
2022/06/04 05:37:05;;;;;;;1.55;1.17;;;;;;;19.54;58.30;100231.69;1748257;80;21489;-67
2022/06/04 05:39:31;;;;;;;2.62;1.25;;;;;;;19.60;57.87;100228.85;1748355;82;21081;-70
2022/06/04 05:41:59;;;;;;;2.55;1.50;;;;;;;19.67;57.44;100231.78;1748149;81;21024;-68
2022/06/04 05:44:27;;;;;;;2.55;1.70;;;;;;;19.72;57.39;100229.28;1748566;82;20873;-68
2022/06/04 05:46:55;;;;;;;2.72;1.37;;;;;;;19.76;56.61;100232.16;1748414;82;21005;-68
2022/06/04 05:49:25;;;;;;;1.85;1.37;;;;;;;19.80;56.41;100234.45;1748482;82;21024;-68
2022/06/04 05:51:52;;;;;;;3.40;1.65;;;;;;;19.85;55.66;100235.56;1748421;82;21449;-68
2022/06/04 05:54:19;;;;;;;1.57;1.47;;;;;;;19.90;55.44;100238.66;1748034;82;20941;-65
2022/06/04 05:56:48;;;;;;;4.17;1.57;;;;;;;19.94;55.33;100232.56;1748828;81;20877;-66
2022/06/04 05:59:18;;;;;;;3.90;1.20;;;;;;;19.98;55.01;100229.84;1748391;82;20908;-68
2022/06/04 06:01:46;;;;;;;4.30;1.70;;;;;;;20.01;53.96;100234.09;1748515;82;20869;-67
2022/06/04 06:04:14;;;;;;;2.35;1.47;;;;;;;20.06;53.89;100233.03;1748256;82;21143;-68
2022/06/04 06:06:45;;;;;;;9.40;2.02;;;;;;;20.14;53.99;100236.78;1748370;81;20973;-67
2022/06/04 06:09:14;;;;;;;3.98;1.57;;;;;;;20.18;53.70;100234.27;1748831;81;20969;-68
2022/06/04 06:11:42;;;;;;;1.35;1.25;;;;;;;20.25;53.49;100231.41;1748267;81;21001;-67
2022/06/04 06:14:09;;;;;;;1.70;1.35;;;;;;;20.30;53.68;100226.91;1748483;82;20960;-66
2022/06/04 06:16:41;;;;;;;2.60;1.40;;;;;;;20.37;53.13;100224.23;1748273;81;21027;-64
2022/06/04 06:19:08;;;;;;;2.62;1.17;;;;;;;20.43;53.14;100219.97;1748339;82;21000;-66
2022/06/04 06:21:36;;;;;;;1.98;1.50;;;;;;;20.51;52.51;100220.90;1748473;82;20968;-64
2022/06/04 06:24:04;;;;;;;8.25;1.60;;;;;;;20.59;51.73;100216.84;1748043;82;20993;-65
2022/06/04 06:26:35;;;;;;;2.27;1.47;;;;;;;20.63;51.71;100212.09;1748484;82;20937;-67
2022/06/04 06:29:03;;;;;;;1.70;1.17;;;;;;;20.68;51.44;100212.61;1748273;82;21121;-69
2022/06/04 06:31:30;;;;;;;1.55;1.35;;;;;;;20.75;51.28;100218.11;1748192;81;20975;-70
2022/06/04 06:33:58;;;;;;;1.55;1.40;;;;;;;20.81;50.08;100213.83;1721698;82;21007;-68
2022/06/04 06:36:24;;;;;;;1.05;1.00;;;;;;;20.85;50.37;100217.48;1748316;80;20965;-68
2022/06/04 06:38:51;;;;;;;4.55;1.50;;;;;;;20.90;49.47;100203.17;1748723;82;21100;-65
2022/06/04 06:41:23;;;;;;;1.20;0.90;;;;;;;20.96;49.56;100199.50;1748313;82;21745;-67
2022/06/04 06:43:51;;;;;;;5.30;1.50;;;;;;;21.01;48.74;100191.37;1748527;81;20980;-68
2022/06/04 06:46:28;;;;;;;1.12;0.93;;;;;;;21.07;49.05;100183.47;1748879;82;20976;-68
2022/06/04 06:49:05;;;;;;;3.40;1.52;;;;;;;21.13;49.45;100188.95;1748308;82;20929;-67
2022/06/04 06:51:38;;;;;;;1.85;1.05;;;;;;;21.20;48.64;100188.25;1743707;82;20996;-67
2022/06/04 06:54:09;;;;;;;2.20;1.00;;;;;;;21.25;48.34;100188.75;1748585;82;20948;-68
2022/06/04 06:56:38;;;;;;;1.47;1.15;;;;;;;21.30;47.41;100190.99;1749111;82;20931;-67
2022/06/04 06:59:05;;;;;;;9.10;1.82;;;;;;;21.35;47.64;100192.07;1748720;82;20941;-67
2022/06/04 07:01:32;;;;;;;4.20;1.30;;;;;;;21.41;48.37;100187.75;1748706;82;21005;-66
2022/06/04 07:04:02;;;;;;;4.17;0.90;;;;;;;21.49;47.97;100180.27;1748479;82;20972;-65
2022/06/04 07:06:42;;;;;;;2.50;1.22;;;;;;;21.56;47.38;100180.37;1748452;81;21071;-66
2022/06/04 07:09:24;;;;;;;2.08;1.45;;;;;;;21.63;46.66;100176.85;1748485;82;21560;-66
2022/06/04 07:11:50;;;;;;;1.87;0.90;;;;;;;21.68;46.35;100180.72;1741439;82;20996;-66
2022/06/04 07:14:19;;;;;;;2.00;1.15;;;;;;;21.74;46.29;100163.77;1748346;81;21038;-67
2022/06/04 07:16:47;;;;;;;3.20;1.10;;;;;;;21.77;45.86;100157.98;1748342;81;21075;-70
2022/06/04 07:19:18;;;;;;;1.02;0.85;;;;;;;21.80;46.22;100153.64;1748660;82;20937;-68
2022/06/04 07:21:45;;;;;;;4.60;1.20;;;;;;;21.85;46.26;100163.13;1748848;82;20897;-68
2022/06/04 07:24:12;;;;;;;1.55;0.98;;;;;;;21.89;46.07;100152.73;1750042;81;20908;-68
2022/06/04 07:26:42;;;;;;;4.10;1.20;;;;;;;21.93;46.05;100149.98;1751116;82;20940;-67
2022/06/04 07:29:09;;;;;;;6.28;1.00;;;;;;;22.00;45.77;100154.28;1751393;82;20920;-69
2022/06/04 07:31:36;;;;;;;3.30;0.93;;;;;;;22.08;46.19;100143.34;1751495;82;21495;-69
2022/06/04 07:34:04;;;;;;;1.87;1.02;;;;;;;22.13;44.51;100133.77;1751488;80;21434;-67
2022/06/04 07:36:40;;;;;;;5.17;1.00;;;;;;;22.16;44.83;100137.81;1751524;82;20888;-68
2022/06/04 07:39:06;;;;;;;;;;;;;;;22.27;45.49;100145.73;1754273;82;20983;-68
2022/06/04 07:41:38;;;;;;;1.67;1.02;;;;;;;22.35;44.57;100143.80;1751760;82;20099;-69
2022/06/04 07:44:06;;;;;;;1.87;1.02;;;;;;;22.44;44.11;100143.48;1751818;81;21031;-68
2022/06/04 07:46:33;;;;;;;1.77;1.25;;;;;;;22.50;43.55;100135.72;1751148;81;20908;-68
2022/06/04 07:49:01;;;;;;;1.00;1.00;;;;;;;22.56;43.50;100137.58;1751591;82;21301;-69
2022/06/04 07:51:28;;;;;;;1.45;1.00;;;;;;;22.59;43.60;100137.39;1751250;82;21063;-70
2022/06/04 07:53:55;;;;;;;3.22;1.27;;;;;;;22.66;44.36;100134.68;1751448;82;20881;-68
2022/06/04 07:56:23;;;;;;;1.02;0.93;;;;;;;22.77;44.76;100142.39;1751097;82;22250;-69
2022/06/04 07:58:49;;;;;;;0.88;0.82;;;;;;;22.88;42.86;100138.27;1751694;82;20996;-69
2022/06/04 08:01:18;;;;;;;1.60;0.98;;;;;;;22.92;41.43;100136.27;1751278;81;21172;-67
2022/06/04 08:03:46;;;;;;;1.10;1.00;;;;;;;22.90;40.56;100139.48;1751336;82;20965;-68
2022/06/04 08:06:13;;;;;;;1.60;1.00;;;;;;;22.87;40.19;100130.43;1751218;81;20992;-67
2022/06/04 08:08:41;;;;;;;1.70;1.20;;;;;;;22.84;40.94;100117.95;1751456;82;21237;-70
2022/06/04 08:13:53;;;;;;;1.95;1.57;;;;;;;22.99;42.92;100122.28;1751546;82;21450;-70
2022/06/04 08:16:19;;;;;;;1.35;1.05;;;;;;;23.05;43.51;100123.52;1751423;82;21039;-66
2022/06/04 08:18:47;;;;;;;1.57;1.27;;;;;;;23.12;43.37;100122.75;1751170;81;21055;-71
2022/06/04 08:21:14;;;;;;;1.85;1.30;;;;;;;23.21;43.32;100135.05;1751588;82;21126;-68
2022/06/04 08:23:42;;;;;;;1.77;1.20;;;;;;;23.30;42.87;100124.25;1751510;81;21465;-67
2022/06/04 08:26:12;;;;;;;1.20;1.10;;;;;;;23.41;42.12;100124.94;1751448;81;21504;-65
2022/06/04 08:28:39;;;;;;;8.50;1.62;;;;;;;23.48;41.11;100118.55;1751221;82;21511;-69
2022/06/04 08:31:10;;;;;;;1.12;1.00;;;;;;;23.42;41.67;100119.55;1751240;81;21059;-70
2022/06/04 08:33:38;;;;;;;3.55;1.50;;;;;;;23.40;41.62;100116.28;1751472;82;21291;-67
2022/06/04 08:36:06;;;;;;;1.35;1.17;;;;;;;23.34;40.00;100114.44;1751705;82;21441;-69
2022/06/04 08:38:34;;;;;;;4.97;1.42;;;;;;;23.19;40.88;100112.16;1751296;82;21457;-65
2022/06/04 08:41:05;;;;;;;2.98;1.22;;;;;;;23.13;40.90;100107.53;1751560;81;21044;-69
2022/06/04 08:43:37;;;;;;;1.40;1.05;;;;;;;23.08;41.63;100111.49;1751458;82;21095;-67
2022/06/04 08:46:11;;;;;;;1.52;1.22;;;;;;;22.96;40.55;100111.84;1751545;81;21497;-69
2022/06/04 08:48:38;;;;;;;1.45;1.32;;;;;;;22.90;41.29;100111.39;1751232;82;21017;-69
2022/06/04 08:51:19;;;;;;;2.60;1.20;;;;;;;22.89;41.77;100104.17;1751411;82;21016;-68
2022/06/04 08:53:49;;;;;;;1.98;1.12;;;;;;;22.95;41.50;100105.41;1751420;82;21012;-68
2022/06/04 08:59:35;;;;;;;2.10;1.50;;;;;;;23.24;42.14;100101.95;1683045;82;21093;-66
2022/06/04 09:02:03;;;;;;;3.72;1.20;;;;;;;23.39;39.98;100096.41;1751466;82;21052;-67
2022/06/04 09:04:53;;;;;;;3.10;1.10;;;;;;;23.27;40.09;100096.94;1751532;81;20956;-67
2022/06/04 09:07:39;;;;;;;3.45;1.45;;;;;;;23.19;41.75;100093.30;1750785;82;21024;-72
2022/06/04 09:10:20;;;;;;;2.15;1.20;;;;;;;23.22;42.20;100093.91;1751881;82;21418;-70
2022/06/04 09:12:56;;;;;;;1.87;1.67;;;;;;;23.06;42.55;100092.84;1751296;81;21339;-67
2022/06/04 09:15:29;;;;;;;4.05;1.27;;;;;;;23.08;42.22;100095.25;1751497;81;21679;-70
2022/06/04 09:18:01;;;;;;;1.75;1.30;;;;;;;23.19;42.98;100089.09;1751048;82;21403;-71
2022/06/04 09:20:49;;;;;;;2.00;1.30;;;;;;;23.24;43.35;100087.89;1726542;82;21023;-67
2022/06/04 09:23:23;;;;;;;1.65;1.30;;;;;;;23.26;43.81;100090.31;1725750;82;20952;-68
2022/06/04 09:26:13;;;;;;;7.28;1.42;;;;;;;23.25;41.43;100082.50;1751312;82;21353;-71
2022/06/04 09:28:56;;;;;;;3.72;1.52;;;;;;;23.23;41.63;100082.08;1751035;81;21493;-70
2022/06/04 09:31:55;;;;;;;3.10;1.60;;;;;;;23.25;42.30;100089.52;1751147;80;21004;-71
2022/06/04 09:34:36;;;;;;;1.57;1.47;;;;;;;23.31;42.09;100073.89;1751387;82;20941;-71
2022/06/04 09:37:06;;;;;;;2.90;2.17;;;;;;;23.46;42.54;100072.55;1751531;82;21595;-70
2022/06/04 09:39:37;;;;;;;3.87;1.77;;;;;;;23.66;42.53;100071.62;1751190;81;21145;-69
2022/06/04 09:42:12;;;;;;;2.02;1.70;;;;;;;23.80;42.01;100070.86;1751566;81;21012;-70
2022/06/04 09:45:01;;;;;;;1.22;1.07;;;;;;;23.99;41.77;100073.70;1748306;82;21004;-67
2022/06/04 09:47:33;;;;;;;1.75;1.35;;;;;;;24.14;41.72;100066.10;1743159;82;21607;-66
2022/06/04 09:50:24;;;;;;;1.27;1.17;;;;;;;24.23;40.40;100067.93;1751465;81;21473;-67
2022/06/04 09:53:15;;;;;;;3.62;1.32;;;;;;;24.26;39.59;100066.34;1751413;81;21268;-68
2022/06/04 09:56:06;;;;;;;4.67;1.20;;;;;;;24.29;39.74;100071.94;1751411;82;21382;-69
2022/06/04 09:58:38;;;;;;;2.65;1.45;;;;;;;24.39;38.98;100063.33;1751437;82;21493;-68
2022/06/04 10:01:20;;;;;;;2.00;1.40;;;;;;;24.42;38.67;100070.95;1751527;82;21422;-70
2022/06/04 10:04:11;;;;;;;4.17;2.00;;;;;;;24.43;38.75;100062.70;1751754;82;20980;-70
2022/06/04 10:06:38;;;;;;;2.15;1.15;;;;;;;24.50;40.09;100061.08;1742821;82;21411;-70
2022/06/04 10:12:07;;;;;;;5.08;1.32;;;;;;;24.62;41.29;100053.63;1751394;81;20944;-68
2022/06/04 10:14:37;;;;;;;3.05;1.52;;;;;;;24.59;40.84;100053.04;1751618;81;20932;-67
2022/06/04 10:17:14;;;;;;;1.40;1.30;;;;;;;24.61;40.28;100049.81;1751462;82;21433;-70
2022/06/04 10:19:54;;;;;;;3.52;1.20;;;;;;;24.60;38.99;100046.81;1746974;82;21492;-67
2022/06/04 10:22:23;;;;;;;1.15;1.05;;;;;;;24.62;38.85;100047.19;1750579;82;21027;-66
2022/06/04 10:24:58;;;;;;;8.08;1.52;;;;;;;24.65;38.62;100044.37;1751606;81;21024;-70
2022/06/04 10:28:10;;;;;;;2.62;1.50;;;;;;;24.69;37.76;100042.95;1748414;82;21753;-66
2022/06/04 10:30:57;;;;;;;2.45;1.20;;;;;;;24.72;39.34;100035.10;1748446;81;20916;-67
2022/06/04 10:34:01;;;;;;;1.47;1.32;;;;;;;24.77;39.25;100025.45;1748339;82;21544;-67
2022/06/04 10:36:44;;;;;;;1.42;1.30;;;;;;;24.66;38.72;100029.09;1730302;82;20946;-67
2022/06/04 10:39:22;;;;;;;1.32;1.15;;;;;;;24.64;39.44;100022.25;1747140;82;20977;-69
2022/06/04 10:41:58;;;;;;;1.47;1.37;;;;;;;24.72;38.41;100029.47;1737038;82;21181;-66
2022/06/04 10:44:48;;;;;;;1.25;1.05;;;;;;;24.80;37.70;100020.41;1727906;82;20945;-69
2022/06/04 10:47:34;;;;;;;1.57;1.10;;;;;;;24.89;37.33;100025.62;1706258;82;21650;-67
2022/06/04 10:50:21;;;;;;;1.98;1.20;;;;;;;25.03;38.69;100023.37;1721683;82;21007;-70
2022/06/04 10:53:19;;;;;;;2.15;1.15;;;;;;;25.20;38.53;100020.29;1742413;81;21079;-70
2022/06/04 10:55:54;;;;;;;1.85;1.22;;;;;;;25.38;38.79;100022.23;1741852;82;21083;-70
2022/06/04 10:58:38;;;;;;;5.60;1.10;;;;;;;25.59;38.77;100020.52;1755134;81;21059;-68
2022/06/04 11:01:30;;;;;;;2.55;1.20;;;;;;;25.74;37.80;100024.07;1750398;81;21164;-67
2022/06/04 11:04:33;;;;;;;4.80;1.10;;;;;;;25.79;37.25;100014.36;1759474;81;21007;-68
2022/06/04 11:07:28;;;;;;;2.10;1.40;;;;;;;25.82;37.29;100010.11;1757512;81;21051;-69
2022/06/04 11:09:58;;;;;;;1.65;1.35;;;;;;;25.82;37.33;100013.53;1750035;81;21092;-70
2022/06/04 11:12:40;;;;;;;2.00;1.10;;;;;;;25.78;37.06;100016.37;1753725;81;21480;-68
2022/06/04 11:15:24;;;;;;;3.50;1.45;;;;;;;25.78;36.22;100005.72;1738051;80;21104;-71
2022/06/04 11:18:02;;;;;;;2.27;1.60;;;;;;;25.80;37.43;100018.17;1769133;81;21078;-67
2022/06/04 11:20:36;;;;;;;1.87;1.27;;;;;;;25.86;37.04;100007.27;1769032;81;21051;-68
2022/06/04 11:23:40;;;;;;;1.50;1.30;;;;;;;25.83;36.52;100010.30;1740265;81;21045;-70
2022/06/04 11:26:24;;;;;;;3.45;0.90;;;;;;;25.84;37.88;100007.69;1718460;81;20889;-68
2022/06/04 11:28:51;;;;;;;3.33;1.42;;;;;;;25.93;37.28;99995.91;1689924;84;21922;-67
2022/06/04 11:31:52;;;;;;;5.08;1.12;;;;;;;25.97;37.76;100000.92;1715477;83;21575;-70
2022/06/04 11:34:44;;;;;;;1.35;1.10;;;;;;;26.03;37.27;99994.23;1635975;86;21077;-68
2022/06/04 11:37:40;;;;;;;2.15;1.27;;;;;;;26.06;36.49;99982.70;1701359;82;21037;-68
2022/06/04 11:40:41;;;;;;;2.08;1.35;;;;;;;25.88;36.51;99970.95;1715415;83;21000;-69
2022/06/04 11:43:26;;;;;;;1.98;1.22;;;;;;;25.73;37.98;99980.13;1723799;82;22149;-68
2022/06/04 11:46:04;;;;;;;1.72;1.10;;;;;;;25.89;37.82;99985.27;1723629;82;22232;-68
2022/06/04 11:48:43;;;;;;;1.10;1.00;;;;;;;26.08;36.34;99980.28;1725147;82;21488;-67
2022/06/04 11:51:29;;;;;;;1.42;1.02;;;;;;;26.21;35.78;99981.37;1721464;83;21455;-70
2022/06/04 11:54:13;;;;;;;0.85;0.85;;;;;;;26.32;36.14;99977.05;1720603;83;21101;-69
2022/06/04 11:57:04;;;;;;;;;;;;;;;26.42;34.60;99971.72;1749682;80;21159;-71
2022/06/04 12:00:02;;;;;;;3.80;2.47;;;;;;;26.53;35.09;99968.16;1746804;81;20164;-69
2022/06/04 12:02:56;;;;;;;1.37;1.12;;;;;;;26.70;35.75;99966.36;1748420;81;21048;-66
2022/06/04 12:05:41;;;;;;;3.83;1.40;;;;;;;26.84;35.07;99970.24;1735315;82;21035;-69
2022/06/04 12:08:10;;;;;;;;;;;;;;;26.86;33.04;99967.80;1739343;82;21571;-69
2022/06/04 12:11:12;;;;;;;3.35;1.20;;;;;;;26.60;33.32;99957.40;1704898;81;21067;-67
2022/06/04 12:14:04;;;;;;;2.22;1.07;;;;;;;26.44;34.75;99957.99;1743455;81;21119;-67
2022/06/04 12:16:39;;;;;;;2.50;1.27;;;;;;;26.39;33.82;99950.78;1753485;81;21540;-66
2022/06/04 12:25:21;;;;;;;1.45;1.02;;;;;;;26.23;33.03;99950.70;1755790;81;21255;-66